createdAt,value
2022-11-15T00:00:24.138Z,0.00
2022-11-15T00:01:24.136Z,0.00
2022-11-15T00:02:24.169Z,0.00
2022-11-15T00:03:24.107Z,0.00
2022-11-15T00:04:24.100Z,0.00
2022-11-15T00:05:24.082Z,0.00
2022-11-15T00:06:24.081Z,0.00
2022-11-15T00:07:53.625Z,0.00
2022-11-15T00:08:24.062Z,0.00
2022-11-15T00:09:24.039Z,0.00
2022-11-15T00:10:24.040Z,0.00
2022-11-15T00:11:24.028Z,0.00
2022-11-15T00:12:24.009Z,0.00
2022-11-15T00:13:23.995Z,0.00
2022-11-15T00:14:24.000Z,0.00
2022-11-15T00:15:23.973Z,0.00
2022-11-15T00:16:23.978Z,0.00
2022-11-15T00:17:23.962Z,0.00
2022-11-15T00:18:23.946Z,0.00
2022-11-15T00:19:23.930Z,0.00
2022-11-15T00:20:23.928Z,0.00
2022-11-15T00:21:23.922Z,0.00
2022-11-15T00:22:23.900Z,0.00
2022-11-15T00:23:23.894Z,0.00
2022-11-15T00:24:23.883Z,0.00
2022-11-15T00:25:23.867Z,0.00
2022-11-15T00:26:23.871Z,0.00
2022-11-15T00:27:23.846Z,0.00
2022-11-15T00:28:23.838Z,0.00
2022-11-15T00:29:23.821Z,0.00
2022-11-15T00:30:23.818Z,0.00
2022-11-15T00:31:23.831Z,0.00
2022-11-15T00:32:23.802Z,0.00
2022-11-15T00:33:23.783Z,0.00
2022-11-15T00:34:23.775Z,0.00
2022-11-15T00:35:23.760Z,0.00
2022-11-15T00:36:23.763Z,0.00
2022-11-15T00:37:23.743Z,0.00
2022-11-15T00:38:23.733Z,0.00
2022-11-15T00:39:23.718Z,0.00
2022-11-15T00:40:23.708Z,0.00
2022-11-15T00:41:23.706Z,0.00
2022-11-15T00:42:23.688Z,0.00
2022-11-15T00:43:23.672Z,0.00
2022-11-15T00:44:23.669Z,0.00
2022-11-15T00:45:23.672Z,0.00
2022-11-15T00:46:23.656Z,0.00
2022-11-15T00:47:23.631Z,0.00
2022-11-15T00:48:23.626Z,0.00
2022-11-15T00:49:23.609Z,0.00
2022-11-15T00:50:23.606Z,0.00
2022-11-15T00:51:23.600Z,0.00
2022-11-15T00:52:23.584Z,0.00
2022-11-15T00:53:23.568Z,0.00
2022-11-15T00:54:23.576Z,0.00
2022-11-15T00:55:23.549Z,0.00
2022-11-15T00:56:23.551Z,0.00
2022-11-15T00:57:23.531Z,0.00
2022-11-15T00:58:23.521Z,0.00
2022-11-15T00:59:23.503Z,0.00
2022-11-15T01:00:23.498Z,0.00
2022-11-15T01:01:23.577Z,0.00
2022-11-15T01:02:23.480Z,0.00
2022-11-15T01:03:23.470Z,0.00
2022-11-15T01:04:23.459Z,0.00
2022-11-15T01:05:23.448Z,0.00
2022-11-15T01:06:23.451Z,0.00
2022-11-15T01:07:23.445Z,0.00
2022-11-15T01:08:23.421Z,0.00
2022-11-15T01:09:23.414Z,0.00
2022-11-15T01:10:23.391Z,0.00
2022-11-15T01:11:23.398Z,0.00
2022-11-15T01:12:23.367Z,0.00
2022-11-15T01:13:23.375Z,0.00
2022-11-15T01:14:25.552Z,0.00
2022-11-15T01:15:23.330Z,0.00
2022-11-15T01:16:23.337Z,0.00
2022-11-15T01:17:23.318Z,0.00
2022-11-15T01:18:23.324Z,0.00
2022-11-15T01:19:23.290Z,0.00
2022-11-15T01:20:23.289Z,0.00
2022-11-15T01:21:23.280Z,0.00
2022-11-15T01:22:23.271Z,0.00
2022-11-15T01:23:23.247Z,0.00
2022-11-15T01:24:23.240Z,0.00
2022-11-15T01:25:23.229Z,0.00
2022-11-15T01:26:23.239Z,0.00
2022-11-15T01:27:23.206Z,0.00
2022-11-15T01:28:23.205Z,0.00
2022-11-15T01:29:23.186Z,0.00
2022-11-15T01:30:23.180Z,0.00
2022-11-15T01:31:23.177Z,0.00
2022-11-15T01:32:23.157Z,0.00
2022-11-15T01:33:23.147Z,0.00
2022-11-15T01:34:23.133Z,0.00
2022-11-15T01:35:23.120Z,0.00
2022-11-15T01:36:23.129Z,0.00
2022-11-15T01:37:23.096Z,0.00
2022-11-15T01:38:23.095Z,0.00
2022-11-15T01:39:23.089Z,0.00
2022-11-15T01:40:23.072Z,0.00
2022-11-15T01:41:23.072Z,0.00
2022-11-15T01:42:23.048Z,0.00
2022-11-15T01:43:23.032Z,0.00
2022-11-15T01:44:23.032Z,0.00
2022-11-15T01:45:23.013Z,0.00
2022-11-15T01:46:23.025Z,0.00
2022-11-15T01:47:22.990Z,0.00
2022-11-15T01:48:22.986Z,0.00
2022-11-15T01:49:22.973Z,0.00
2022-11-15T01:50:22.975Z,0.00
2022-11-15T01:51:22.945Z,0.00
2022-11-15T01:52:22.943Z,0.00
2022-11-15T01:53:22.927Z,0.00
2022-11-15T01:54:22.923Z,0.00
2022-11-15T01:55:22.915Z,0.00
2022-11-15T01:56:22.903Z,0.00
2022-11-15T01:57:22.884Z,0.00
2022-11-15T01:58:22.879Z,0.00
2022-11-15T01:59:22.869Z,0.00
2022-11-15T02:00:22.872Z,0.00
2022-11-15T02:01:22.879Z,0.00
2022-11-15T02:02:22.837Z,0.00
2022-11-15T02:03:22.820Z,0.00
2022-11-15T02:04:22.812Z,0.00
2022-11-15T02:05:22.811Z,0.00
2022-11-15T02:06:22.789Z,0.00
2022-11-15T02:07:22.822Z,0.00
2022-11-15T02:08:22.770Z,0.00
2022-11-15T02:09:22.755Z,0.00
2022-11-15T02:10:22.770Z,0.00
2022-11-15T02:11:22.737Z,0.00
2022-11-15T02:12:22.730Z,0.00
2022-11-15T02:13:22.713Z,0.00
2022-11-15T02:14:22.706Z,0.00
2022-11-15T02:15:22.709Z,0.00
2022-11-15T02:16:22.683Z,0.00
2022-11-15T02:17:22.666Z,0.00
2022-11-15T02:18:22.663Z,0.00
2022-11-15T02:19:22.650Z,0.00
2022-11-15T02:20:22.651Z,0.00
2022-11-15T02:21:22.626Z,0.00
2022-11-15T02:22:22.620Z,0.00
2022-11-15T02:23:22.601Z,0.00
2022-11-15T02:24:22.598Z,0.00
2022-11-15T02:25:22.592Z,0.00
2022-11-15T02:26:22.575Z,0.00
2022-11-15T02:27:22.564Z,0.00
2022-11-15T02:28:22.564Z,0.00
2022-11-15T02:29:22.547Z,0.00
2022-11-15T02:30:22.547Z,0.00
2022-11-15T02:31:22.521Z,0.00
2022-11-15T02:32:22.513Z,0.00
2022-11-15T02:33:22.502Z,0.00
2022-11-15T02:34:22.487Z,0.00
2022-11-15T02:35:22.489Z,0.00
2022-11-15T02:36:22.467Z,0.00
2022-11-15T02:37:22.457Z,0.00
2022-11-15T02:38:22.445Z,0.00
2022-11-15T02:39:22.437Z,0.00
2022-11-15T02:40:22.445Z,0.00
2022-11-15T02:41:22.415Z,0.00
2022-11-15T02:42:22.401Z,0.00
2022-11-15T02:43:22.396Z,0.00
2022-11-15T02:44:22.382Z,0.00
2022-11-15T02:45:22.383Z,0.00
2022-11-15T02:46:22.359Z,0.00
2022-11-15T02:47:22.359Z,0.00
2022-11-15T02:48:22.333Z,0.00
2022-11-15T02:49:22.330Z,0.00
2022-11-15T02:50:22.325Z,0.00
2022-11-15T02:51:22.311Z,0.00
2022-11-15T02:52:22.294Z,0.00
2022-11-15T02:53:22.289Z,0.00
2022-11-15T02:54:22.274Z,0.00
2022-11-15T02:55:22.273Z,0.00
2022-11-15T02:56:22.249Z,0.00
2022-11-15T02:59:44.929Z,0.00
2022-11-15T03:00:46.045Z,0.00
2022-11-15T03:01:45.917Z,0.00
2022-11-15T03:02:45.906Z,0.00
2022-11-15T03:03:45.897Z,0.00
2022-11-15T03:04:45.900Z,0.00
2022-11-15T03:05:45.894Z,0.00
2022-11-15T03:06:45.883Z,0.00
2022-11-15T03:07:45.847Z,0.00
2022-11-15T03:08:45.845Z,0.00
2022-11-15T03:09:45.830Z,0.00
2022-11-15T03:10:45.830Z,0.00
2022-11-15T03:11:45.804Z,0.00
2022-11-15T03:12:45.801Z,0.00
2022-11-15T03:13:45.785Z,0.00
2022-11-15T03:14:45.780Z,0.00
2022-11-15T03:15:45.774Z,0.00
2022-11-15T03:16:45.768Z,0.00
2022-11-15T03:17:45.738Z,0.00
2022-11-15T03:18:45.741Z,0.00
2022-11-15T03:19:45.719Z,0.00
2022-11-15T03:20:45.721Z,0.00
2022-11-15T03:21:45.701Z,0.00
2022-11-15T03:22:45.690Z,0.00
2022-11-15T03:23:45.677Z,0.00
2022-11-15T03:24:45.669Z,0.00
2022-11-15T03:25:45.670Z,0.00
2022-11-15T03:26:45.652Z,0.00
2022-11-15T03:27:45.643Z,0.00
2022-11-15T03:28:45.632Z,0.00
2022-11-15T03:29:45.611Z,0.00
2022-11-15T03:30:45.621Z,0.00
2022-11-15T03:31:49.724Z,0.00
2022-11-15T03:32:45.605Z,0.00
2022-11-15T03:33:45.572Z,0.00
2022-11-15T03:34:45.569Z,0.00
2022-11-15T03:35:45.557Z,0.00
2022-11-15T03:36:45.545Z,0.00
2022-11-15T03:37:45.529Z,0.00
2022-11-15T03:38:45.518Z,0.00
2022-11-15T03:39:45.508Z,0.00
2022-11-15T03:40:45.514Z,0.00
2022-11-15T03:41:45.485Z,0.00
2022-11-15T03:42:45.478Z,0.00
2022-11-15T03:43:45.463Z,0.00
2022-11-15T03:44:45.456Z,0.00
2022-11-15T03:45:45.451Z,0.00
2022-11-15T03:46:45.437Z,0.00
2022-11-15T03:47:45.423Z,0.00
2022-11-15T03:48:45.417Z,0.00
2022-11-15T03:49:45.397Z,0.00
2022-11-15T03:50:45.404Z,0.00
2022-11-15T03:51:45.377Z,0.00
2022-11-15T03:52:45.373Z,0.00
2022-11-15T03:53:45.355Z,0.00
2022-11-15T03:54:45.351Z,0.00
2022-11-15T03:55:45.344Z,0.00
2022-11-15T03:56:45.328Z,0.00
2022-11-15T03:57:45.312Z,0.00
2022-11-15T03:58:45.308Z,0.00
2022-11-15T03:59:45.289Z,0.00
2022-11-15T04:00:45.363Z,0.00
2022-11-15T04:01:45.269Z,0.00
2022-11-15T04:02:45.264Z,0.00
2022-11-15T04:03:45.249Z,0.00
2022-11-15T04:04:45.242Z,0.00
2022-11-15T04:05:45.238Z,0.00
2022-11-15T04:06:45.327Z,0.00
2022-11-15T04:07:45.211Z,0.00
2022-11-15T04:08:45.198Z,0.00
2022-11-15T04:09:45.180Z,0.00
2022-11-15T04:10:45.200Z,0.00
2022-11-15T04:11:45.163Z,0.00
2022-11-15T04:12:45.155Z,0.00
2022-11-15T04:13:45.145Z,0.00
2022-11-15T04:14:45.131Z,0.00
2022-11-15T04:15:45.131Z,0.00
2022-11-15T04:16:45.114Z,0.00
2022-11-15T04:17:45.099Z,0.00
2022-11-15T04:18:45.092Z,0.00
2022-11-15T04:19:45.072Z,0.00
2022-11-15T04:20:45.078Z,0.00
2022-11-15T04:21:45.062Z,0.00
2022-11-15T04:22:45.048Z,0.00
2022-11-15T04:23:45.034Z,0.00
2022-11-15T04:24:45.026Z,0.00
2022-11-15T04:25:45.029Z,0.00
2022-11-15T04:26:45.009Z,0.00
2022-11-15T04:27:44.990Z,0.00
2022-11-15T04:28:44.982Z,0.00
2022-11-15T04:29:44.978Z,0.00
2022-11-15T04:30:44.974Z,0.00
2022-11-15T04:31:44.953Z,0.00
2022-11-15T04:32:44.944Z,0.00
2022-11-15T04:33:44.925Z,0.00
2022-11-15T04:34:44.922Z,0.00
2022-11-15T04:35:44.918Z,0.00
2022-11-15T04:36:44.897Z,0.00
2022-11-15T04:37:49.078Z,0.00
2022-11-15T04:38:44.878Z,0.00
2022-11-15T04:39:44.858Z,0.00
2022-11-15T04:40:44.867Z,0.00
2022-11-15T04:41:44.843Z,0.00
2022-11-15T04:42:44.835Z,0.00
2022-11-15T04:43:44.814Z,0.00
2022-11-15T04:44:44.811Z,0.00
2022-11-15T04:45:44.809Z,0.00
2022-11-15T04:46:44.786Z,0.00
2022-11-15T04:47:44.773Z,0.00
2022-11-15T04:48:44.766Z,0.00
2022-11-15T04:49:44.780Z,0.00
2022-11-15T04:50:44.766Z,0.00
2022-11-15T04:51:44.730Z,0.00
2022-11-15T04:52:44.722Z,0.00
2022-11-15T04:53:44.712Z,0.00
2022-11-15T04:54:44.702Z,0.00
2022-11-15T04:55:44.700Z,0.00
2022-11-15T04:56:44.691Z,0.00
2022-11-15T04:57:44.664Z,0.00
2022-11-15T04:58:44.660Z,0.00
2022-11-15T04:59:44.653Z,0.00
2022-11-15T05:00:44.698Z,0.00
2022-11-15T05:01:45.253Z,0.00
2022-11-15T05:02:44.624Z,0.00
2022-11-15T05:03:44.607Z,0.00
2022-11-15T05:04:44.593Z,0.00
2022-11-15T05:05:44.597Z,0.00
2022-11-15T05:06:44.574Z,0.00
2022-11-15T05:07:44.562Z,0.00
2022-11-15T05:08:44.555Z,0.00
2022-11-15T05:09:44.538Z,0.00
2022-11-15T05:10:44.538Z,0.00
2022-11-15T05:11:44.523Z,0.00
2022-11-15T05:12:44.508Z,0.00
2022-11-15T05:13:44.494Z,0.00
2022-11-15T05:14:44.488Z,0.00
2022-11-15T05:15:44.486Z,0.00
2022-11-15T05:16:44.466Z,0.00
2022-11-15T05:17:44.451Z,0.00
2022-11-15T05:18:44.451Z,0.00
2022-11-15T05:19:44.429Z,0.00
2022-11-15T05:20:44.441Z,0.00
2022-11-15T05:21:44.414Z,0.00
2022-11-15T05:22:44.402Z,0.00
2022-11-15T05:23:44.383Z,0.00
2022-11-15T05:24:44.381Z,0.00
2022-11-15T05:25:44.379Z,0.00
2022-11-15T05:26:44.360Z,0.00
2022-11-15T05:27:44.343Z,0.00
2022-11-15T05:28:44.339Z,0.00
2022-11-15T05:29:44.322Z,0.00
2022-11-15T05:30:44.331Z,0.00
2022-11-15T05:31:44.313Z,0.00
2022-11-15T05:32:44.298Z,0.00
2022-11-15T05:33:44.279Z,0.00
2022-11-15T05:34:44.274Z,0.00
2022-11-15T05:35:44.270Z,0.00
2022-11-15T05:36:44.261Z,0.00
2022-11-15T05:37:44.238Z,0.00
2022-11-15T05:38:44.230Z,0.00
2022-11-15T05:39:44.223Z,0.00
2022-11-15T05:40:44.221Z,0.00
2022-11-15T05:41:44.195Z,0.00
2022-11-15T05:42:44.193Z,0.00
2022-11-15T05:43:44.172Z,0.00
2022-11-15T05:44:44.172Z,0.00
2022-11-15T05:45:44.161Z,0.00
2022-11-15T05:46:44.156Z,0.00
2022-11-15T05:47:44.131Z,0.00
2022-11-15T05:48:44.124Z,0.00
2022-11-15T05:49:44.117Z,0.00
2022-11-15T05:50:44.111Z,0.00
2022-11-15T05:51:44.151Z,0.00
2022-11-15T05:52:44.079Z,0.00
2022-11-15T05:53:44.069Z,0.00
2022-11-15T05:54:44.054Z,0.00
2022-11-15T05:55:44.062Z,0.00
2022-11-15T05:56:44.035Z,0.00
2022-11-15T05:57:44.026Z,0.00
2022-11-15T05:58:44.013Z,0.00
2022-11-15T05:59:44.008Z,0.00
2022-11-15T06:00:44.000Z,0.00
2022-11-15T06:01:44.017Z,0.00
2022-11-15T06:02:43.985Z,0.00
2022-11-15T06:03:43.962Z,0.00
2022-11-15T06:04:43.949Z,0.00
2022-11-15T06:05:43.910Z,0.00
2022-11-15T06:06:43.874Z,0.00
2022-11-15T06:07:43.867Z,0.00
2022-11-15T06:08:43.911Z,0.00
2022-11-15T06:09:43.901Z,0.00
2022-11-15T06:10:43.852Z,0.00
2022-11-15T06:11:43.827Z,0.00
2022-11-15T06:12:43.865Z,0.00
2022-11-15T06:13:43.814Z,0.00
2022-11-15T06:14:43.783Z,0.00
2022-11-15T06:15:43.804Z,0.00
2022-11-15T06:16:43.767Z,0.00
2022-11-15T06:17:43.759Z,0.00
2022-11-15T06:18:43.745Z,0.00
2022-11-15T06:19:43.740Z,0.00
2022-11-15T06:20:43.729Z,0.00
2022-11-15T06:21:43.721Z,0.00
2022-11-15T06:22:43.702Z,0.00
2022-11-15T06:23:43.695Z,0.00
2022-11-15T06:24:43.683Z,0.00
2022-11-15T06:25:43.685Z,0.00
2022-11-15T06:26:43.659Z,0.00
2022-11-15T06:27:43.661Z,0.00
2022-11-15T06:28:43.647Z,0.00
2022-11-15T06:29:43.637Z,0.00
2022-11-15T06:30:43.636Z,0.00
2022-11-15T06:31:43.610Z,0.00
2022-11-15T06:32:43.594Z,0.00
2022-11-15T06:33:43.595Z,0.00
2022-11-15T06:34:43.575Z,0.00
2022-11-15T06:35:43.579Z,0.00
2022-11-15T06:36:43.560Z,0.00
2022-11-15T06:37:43.554Z,0.00
2022-11-15T06:38:43.532Z,0.00
2022-11-15T06:39:43.529Z,0.00
2022-11-15T06:40:43.525Z,0.00
2022-11-15T06:41:43.515Z,0.00
2022-11-15T06:42:43.487Z,0.00
2022-11-15T06:43:43.490Z,0.00
2022-11-15T06:44:43.471Z,0.00
2022-11-15T06:45:43.473Z,5.62
2022-11-15T06:46:43.447Z,5.62
2022-11-15T06:47:43.443Z,5.62
2022-11-15T06:48:43.424Z,5.62
2022-11-15T06:49:43.417Z,5.62
2022-11-15T06:50:43.415Z,5.62
2022-11-15T06:51:43.399Z,5.62
2022-11-15T06:52:43.386Z,5.62
2022-11-15T06:53:43.382Z,5.62
2022-11-15T06:54:43.360Z,11.25
2022-11-15T06:55:43.363Z,11.25
2022-11-15T06:56:43.339Z,11.25
2022-11-15T06:57:43.329Z,11.25
2022-11-15T06:58:43.317Z,11.25
2022-11-15T06:59:43.311Z,11.25
2022-11-15T07:00:43.305Z,11.25
2022-11-15T07:01:43.320Z,16.88
2022-11-15T07:02:43.281Z,16.88
2022-11-15T07:03:43.266Z,16.88
2022-11-15T07:04:43.253Z,16.88
2022-11-15T07:05:43.257Z,16.88
2022-11-15T07:06:43.233Z,16.88
2022-11-15T07:07:43.227Z,16.88
2022-11-15T07:08:43.213Z,16.88
2022-11-15T07:09:43.203Z,16.88
2022-11-15T07:10:43.208Z,22.50
2022-11-15T07:11:43.184Z,22.50
2022-11-15T07:12:43.168Z,28.12
2022-11-15T07:13:43.157Z,28.12
2022-11-15T07:14:43.148Z,28.12
2022-11-15T07:15:43.152Z,28.12
2022-11-15T07:16:43.124Z,28.12
2022-11-15T07:17:43.122Z,33.75
2022-11-15T07:18:43.104Z,33.75
2022-11-15T07:19:43.099Z,33.75
2022-11-15T07:20:43.095Z,33.75
2022-11-15T07:21:43.075Z,33.75
2022-11-15T07:22:43.067Z,33.75
2022-11-15T07:23:43.060Z,39.38
2022-11-15T07:24:43.064Z,39.38
2022-11-15T07:25:43.046Z,39.38
2022-11-15T07:26:43.021Z,45.00
2022-11-15T07:27:43.014Z,45.00
2022-11-15T07:28:42.995Z,50.62
2022-11-15T07:29:42.993Z,50.62
2022-11-15T07:30:45.325Z,50.62
2022-11-15T07:31:42.969Z,56.25
2022-11-15T07:32:42.969Z,56.25
2022-11-15T07:33:42.947Z,61.88
2022-11-15T07:34:42.938Z,61.88
2022-11-15T07:35:42.934Z,61.88
2022-11-15T07:36:42.913Z,67.50
2022-11-15T07:37:42.906Z,67.50
2022-11-15T07:38:43.280Z,73.12
2022-11-15T07:39:42.887Z,73.12
2022-11-15T07:40:42.877Z,73.12
2022-11-15T07:41:42.860Z,73.12
2022-11-15T07:42:42.855Z,78.75
2022-11-15T07:43:42.839Z,78.75
2022-11-15T07:44:42.826Z,84.38
2022-11-15T07:45:42.829Z,95.62
2022-11-15T07:46:42.808Z,90.00
2022-11-15T07:47:42.798Z,95.62
2022-11-15T07:48:44.829Z,101.25
2022-11-15T07:49:42.778Z,112.50
2022-11-15T07:50:42.782Z,118.12
2022-11-15T07:51:42.758Z,129.38
2022-11-15T07:52:42.743Z,146.25
2022-11-15T07:53:42.734Z,174.38
2022-11-15T07:54:42.716Z,225.00
2022-11-15T07:55:42.722Z,281.25
2022-11-15T07:56:42.700Z,303.75
2022-11-15T07:57:42.690Z,326.25
2022-11-15T07:58:42.681Z,331.88
2022-11-15T07:59:42.679Z,309.38
2022-11-15T08:00:42.663Z,309.38
2022-11-15T08:01:42.751Z,320.62
2022-11-15T08:02:42.854Z,326.25
2022-11-15T08:03:42.632Z,348.75
2022-11-15T08:04:42.629Z,376.88
2022-11-15T08:05:42.613Z,354.38
2022-11-15T08:06:42.592Z,348.75
2022-11-15T08:07:42.582Z,360.00
2022-11-15T08:08:42.590Z,354.38
2022-11-15T08:09:42.564Z,320.62
2022-11-15T08:10:42.560Z,320.62
2022-11-15T08:11:42.592Z,309.38
2022-11-15T08:12:42.556Z,258.75
2022-11-15T08:13:42.529Z,213.75
2022-11-15T08:14:42.501Z,208.12
2022-11-15T08:15:42.504Z,208.12
2022-11-15T08:16:42.493Z,202.50
2022-11-15T08:17:42.469Z,208.12
2022-11-15T08:18:42.460Z,225.00
2022-11-15T08:19:42.449Z,230.62
2022-11-15T08:20:42.446Z,213.75
2022-11-15T08:21:42.436Z,202.50
2022-11-15T08:22:42.416Z,219.38
2022-11-15T08:23:42.413Z,180.00
2022-11-15T08:24:42.403Z,213.75
2022-11-15T08:25:42.396Z,225.00
2022-11-15T08:26:42.374Z,213.75
2022-11-15T08:27:42.445Z,208.12
2022-11-15T08:28:42.348Z,202.50
2022-11-15T08:29:42.344Z,202.50
2022-11-15T08:30:42.349Z,191.25
2022-11-15T08:31:42.323Z,208.12
2022-11-15T08:32:42.306Z,213.75
2022-11-15T08:33:42.304Z,230.62
2022-11-15T08:34:42.284Z,230.62
2022-11-15T08:35:42.290Z,230.62
2022-11-15T08:36:45.932Z,241.88
2022-11-15T08:37:42.258Z,241.88
2022-11-15T08:38:42.244Z,225.00
2022-11-15T08:39:42.233Z,219.38
2022-11-15T08:40:42.234Z,219.38
2022-11-15T08:41:42.214Z,208.12
2022-11-15T08:42:42.198Z,208.12
2022-11-15T08:43:42.204Z,213.75
2022-11-15T08:44:42.188Z,213.75
2022-11-15T08:45:42.195Z,213.75
2022-11-15T08:46:42.160Z,225.00
2022-11-15T08:47:42.168Z,225.00
2022-11-15T08:48:42.130Z,230.62
2022-11-15T08:49:42.144Z,230.62
2022-11-15T08:50:42.125Z,230.62
2022-11-15T08:51:42.106Z,247.50
2022-11-15T08:52:42.091Z,264.38
2022-11-15T08:53:42.083Z,292.50
2022-11-15T08:54:42.067Z,309.38
2022-11-15T08:55:42.075Z,348.75
2022-11-15T08:56:42.053Z,388.12
2022-11-15T08:57:42.064Z,399.38
2022-11-15T08:58:42.026Z,427.50
2022-11-15T08:59:42.032Z,405.00
2022-11-15T09:00:42.001Z,399.38
2022-11-15T09:01:42.047Z,433.12
2022-11-15T09:02:41.989Z,450.00
2022-11-15T09:03:41.977Z,416.25
2022-11-15T09:04:41.970Z,416.25
2022-11-15T09:05:41.949Z,382.50
2022-11-15T09:06:43.317Z,343.12
2022-11-15T09:07:41.943Z,360.00
2022-11-15T09:08:49.094Z,393.75
2022-11-15T09:09:41.909Z,376.88
2022-11-15T09:10:41.892Z,410.62
2022-11-15T09:11:41.893Z,438.75
2022-11-15T09:12:41.884Z,455.62
2022-11-15T09:13:41.864Z,511.88
2022-11-15T09:14:41.854Z,506.25
2022-11-15T09:15:41.840Z,551.25
2022-11-15T09:16:41.827Z,573.75
2022-11-15T09:17:41.830Z,562.50
2022-11-15T09:18:41.807Z,590.62
2022-11-15T09:19:41.798Z,607.50
2022-11-15T09:20:41.785Z,607.50
2022-11-15T09:21:41.776Z,601.88
2022-11-15T09:22:41.774Z,590.62
2022-11-15T09:23:41.768Z,579.38
2022-11-15T09:24:41.747Z,573.75
2022-11-15T09:25:41.744Z,556.88
2022-11-15T09:26:41.724Z,601.88
2022-11-15T09:27:41.730Z,624.38
2022-11-15T09:28:41.706Z,579.38
2022-11-15T09:29:41.700Z,624.38
2022-11-15T09:30:41.679Z,652.50
2022-11-15T09:31:41.684Z,618.75
2022-11-15T09:32:41.673Z,573.75
2022-11-15T09:33:41.654Z,590.62
2022-11-15T09:34:41.651Z,624.38
2022-11-15T09:35:41.638Z,680.62
2022-11-15T09:36:41.633Z,748.12
2022-11-15T09:37:41.630Z,793.12
2022-11-15T09:38:41.602Z,849.38
2022-11-15T09:39:41.602Z,832.50
2022-11-15T09:40:41.576Z,832.50
2022-11-15T09:41:41.568Z,843.75
2022-11-15T09:42:41.569Z,855.00
2022-11-15T09:43:41.549Z,866.25
2022-11-15T09:44:41.531Z,866.25
2022-11-15T09:45:41.531Z,871.88
2022-11-15T09:46:41.510Z,866.25
2022-11-15T09:47:41.518Z,793.12
2022-11-15T09:48:41.500Z,928.12
2022-11-15T09:49:41.491Z,871.88
2022-11-15T09:50:41.475Z,871.88
2022-11-15T09:51:41.463Z,961.88
2022-11-15T09:52:41.464Z,900.00
2022-11-15T09:54:30.295Z,939.38
2022-11-15T09:54:55.157Z,871.88
2022-11-15T09:55:41.436Z,877.50
2022-11-15T09:56:41.424Z,821.25
2022-11-15T09:57:41.556Z,753.75
2022-11-15T09:58:41.384Z,776.25
2022-11-15T09:59:41.399Z,770.62
2022-11-15T10:00:48.901Z,798.75
2022-11-15T10:01:41.395Z,736.88
2022-11-15T10:02:41.372Z,978.75
2022-11-15T10:03:41.424Z,826.88
2022-11-15T10:04:41.327Z,770.62
2022-11-15T10:05:41.317Z,821.25
2022-11-15T10:06:41.308Z,860.62
2022-11-15T10:07:41.307Z,832.50
2022-11-15T10:08:41.286Z,765.00
2022-11-15T10:09:41.274Z,748.12
2022-11-15T10:10:41.266Z,686.25
2022-11-15T10:11:41.260Z,691.88
2022-11-15T10:12:41.257Z,641.25
2022-11-15T10:13:41.228Z,658.12
2022-11-15T10:14:41.230Z,579.38
2022-11-15T10:15:41.228Z,613.12
2022-11-15T10:16:41.236Z,596.25
2022-11-15T10:17:41.198Z,646.88
2022-11-15T10:18:41.200Z,804.38
2022-11-15T10:19:41.166Z,798.75
2022-11-15T10:20:41.159Z,776.25
2022-11-15T10:21:41.157Z,928.12
2022-11-15T10:22:41.209Z,956.25
2022-11-15T10:23:41.126Z,1102.50
2022-11-15T10:24:41.116Z,967.50
2022-11-15T10:25:41.110Z,883.12
2022-11-15T10:26:41.097Z,1080.00
2022-11-15T10:27:41.179Z,916.88
2022-11-15T10:28:41.073Z,1057.50
2022-11-15T10:29:41.060Z,956.25
2022-11-15T10:30:41.052Z,866.25
2022-11-15T10:31:41.043Z,1108.12
2022-11-15T10:32:41.048Z,1170.00
2022-11-15T10:33:41.020Z,978.75
2022-11-15T10:34:41.015Z,1175.62
2022-11-15T10:35:40.993Z,2874.38
2022-11-15T10:36:43.841Z,1130.62
2022-11-15T10:37:40.991Z,928.12
2022-11-15T10:38:40.969Z,1366.88
2022-11-15T10:39:40.954Z,2874.38
2022-11-15T10:40:40.956Z,1074.38
2022-11-15T10:41:40.941Z,900.00
2022-11-15T10:42:40.942Z,1305.00
2022-11-15T10:43:40.910Z,1327.50
2022-11-15T10:44:40.907Z,984.38
2022-11-15T10:45:40.894Z,928.12
2022-11-15T10:46:48.285Z,1220.62
2022-11-15T10:47:40.884Z,1305.00
2022-11-15T10:48:40.867Z,894.38
2022-11-15T10:49:40.843Z,871.88
2022-11-15T10:50:40.840Z,1147.50
2022-11-15T10:51:40.831Z,1366.88
2022-11-15T10:52:40.836Z,978.75
2022-11-15T10:53:40.805Z,871.88
2022-11-15T10:54:40.822Z,1175.62
2022-11-15T10:55:40.782Z,2874.38
2022-11-15T10:56:40.786Z,1147.50
2022-11-15T10:57:40.779Z,894.38
2022-11-15T10:58:40.767Z,1181.25
2022-11-15T10:59:40.745Z,1321.88
2022-11-15T11:00:40.748Z,1119.38
2022-11-15T11:01:41.013Z,838.12
2022-11-15T11:02:40.835Z,939.38
2022-11-15T11:03:40.702Z,1108.12
2022-11-15T11:04:40.699Z,1040.62
2022-11-15T11:05:42.646Z,866.25
2022-11-15T11:06:40.672Z,911.25
2022-11-15T11:07:40.686Z,1113.75
2022-11-15T11:08:40.666Z,1113.75
2022-11-15T11:09:40.641Z,1040.62
2022-11-15T11:11:01.213Z,945.00
2022-11-15T11:11:40.634Z,945.00
2022-11-15T11:12:40.627Z,933.75
2022-11-15T11:13:40.596Z,933.75
2022-11-15T11:14:40.605Z,849.38
2022-11-15T11:15:40.576Z,961.88
2022-11-15T11:16:40.570Z,1006.88
2022-11-15T11:17:40.585Z,1231.88
2022-11-15T11:18:40.633Z,1164.38
2022-11-15T11:19:40.559Z,1063.12
2022-11-15T11:20:40.531Z,1130.62
2022-11-15T11:21:40.528Z,1226.25
2022-11-15T11:22:40.541Z,1035.00
2022-11-15T11:23:40.493Z,945.00
2022-11-15T11:24:40.491Z,967.50
2022-11-15T11:25:40.473Z,1096.88
2022-11-15T11:26:40.473Z,1164.38
2022-11-15T11:27:40.483Z,1080.00
2022-11-15T11:28:40.450Z,1006.88
2022-11-15T11:29:40.431Z,961.88
2022-11-15T11:30:40.444Z,1074.38
2022-11-15T11:31:40.417Z,1170.00
2022-11-15T11:32:40.418Z,1113.75
2022-11-15T11:33:40.391Z,1063.12
2022-11-15T11:34:40.390Z,1153.12
2022-11-15T11:35:40.373Z,1276.88
2022-11-15T11:36:40.542Z,1338.75
2022-11-15T11:37:40.404Z,1316.25
2022-11-15T11:38:40.501Z,1226.25
2022-11-15T11:39:40.538Z,1029.38
2022-11-15T11:40:40.318Z,1203.75
2022-11-15T11:41:40.307Z,1316.25
2022-11-15T11:42:40.308Z,1338.75
2022-11-15T11:43:40.284Z,1299.38
2022-11-15T11:44:40.278Z,1057.50
2022-11-15T11:45:43.456Z,1226.25
2022-11-15T11:46:40.263Z,933.75
2022-11-15T11:47:40.271Z,669.38
2022-11-15T11:48:40.241Z,1215.00
2022-11-15T11:49:40.228Z,1175.62
2022-11-15T11:50:40.244Z,1136.25
2022-11-15T11:51:40.208Z,984.38
2022-11-15T11:52:40.228Z,832.50
2022-11-15T11:53:40.191Z,843.75
2022-11-15T11:54:40.176Z,826.88
2022-11-15T11:55:40.162Z,731.25
2022-11-15T11:56:40.167Z,613.12
2022-11-15T11:57:40.153Z,596.25
2022-11-15T11:58:40.141Z,658.12
2022-11-15T11:59:40.214Z,810.00
2022-11-15T12:00:40.120Z,787.50
2022-11-15T12:01:40.340Z,978.75
2022-11-15T12:02:40.258Z,1074.38
2022-11-15T12:03:40.084Z,1102.50
2022-11-15T12:04:40.074Z,1091.25
2022-11-15T12:05:40.060Z,894.38
2022-11-15T12:06:40.051Z,1006.88
2022-11-15T12:07:40.051Z,714.38
2022-11-15T12:08:40.035Z,691.88
2022-11-15T12:09:40.022Z,646.88
2022-11-15T12:10:40.015Z,703.12
2022-11-15T12:11:39.997Z,855.00
2022-11-15T12:12:40.000Z,652.50
2022-11-15T12:13:39.985Z,551.25
2022-11-15T12:14:40.005Z,427.50
2022-11-15T12:15:39.950Z,399.38
2022-11-15T12:16:39.954Z,365.62
2022-11-15T12:17:39.940Z,303.75
2022-11-15T12:18:39.937Z,281.25
2022-11-15T12:19:39.932Z,275.62
2022-11-15T12:20:39.910Z,270.00
2022-11-15T12:21:39.887Z,264.38
2022-11-15T12:22:39.895Z,264.38
2022-11-15T12:23:39.902Z,264.38
2022-11-15T12:24:39.857Z,258.75
2022-11-15T12:25:39.847Z,264.38
2022-11-15T12:26:39.836Z,286.88
2022-11-15T12:27:39.832Z,309.38
2022-11-15T12:28:52.913Z,320.62
2022-11-15T12:29:39.831Z,315.00
2022-11-15T12:30:39.799Z,303.75
2022-11-15T12:31:39.777Z,286.88
2022-11-15T12:32:39.793Z,264.38
2022-11-15T12:33:39.770Z,247.50
2022-11-15T12:34:39.768Z,230.62
2022-11-15T12:35:39.735Z,219.38
2022-11-15T12:36:39.746Z,208.12
2022-11-15T12:37:39.726Z,202.50
2022-11-15T12:38:39.709Z,191.25
2022-11-15T12:39:39.700Z,185.62
2022-11-15T12:40:39.690Z,174.38
2022-11-15T12:41:39.687Z,163.12
2022-11-15T12:42:39.678Z,163.12
2022-11-15T12:43:39.651Z,151.88
2022-11-15T12:44:39.648Z,146.25
2022-11-15T12:45:39.632Z,146.25
2022-11-15T12:46:39.625Z,140.62
2022-11-15T12:47:39.626Z,140.62
2022-11-15T12:48:39.599Z,135.00
2022-11-15T12:49:39.589Z,129.38
2022-11-15T12:50:39.582Z,118.12
2022-11-15T12:51:39.578Z,112.50
2022-11-15T12:52:39.566Z,106.88
2022-11-15T12:53:39.546Z,106.88
2022-11-15T12:54:39.539Z,106.88
2022-11-15T12:55:39.533Z,106.88
2022-11-15T12:56:39.514Z,118.12